createdAt,value
2022-09-03T00:01:20.351Z,8.20
2022-09-03T00:03:57.978Z,8.20
2022-09-03T00:06:47.211Z,8.10
2022-09-03T00:09:28.685Z,8.10
2022-09-03T00:12:14.686Z,8.10
2022-09-03T00:14:50.623Z,8.10
2022-09-03T00:17:22.828Z,8.10
2022-09-03T00:20:08.064Z,8.00
2022-09-03T00:22:42.080Z,8.00
2022-09-03T00:25:14.787Z,7.90
2022-09-03T00:27:45.935Z,7.80
2022-09-03T00:30:17.265Z,7.80
2022-09-03T00:32:59.536Z,8.10
2022-09-03T00:35:37.922Z,8.10
2022-09-03T00:38:06.423Z,8.20
2022-09-03T00:40:36.766Z,8.20
2022-09-03T00:43:46.567Z,8.20
2022-09-03T00:46:42.078Z,8.30
2022-09-03T00:49:27.675Z,8.40
2022-09-03T00:52:03.636Z,8.30
2022-09-03T00:54:44.731Z,8.20
2022-09-03T00:57:29.952Z,8.20
2022-09-03T01:00:09.206Z,8.20
2022-09-03T01:03:02.832Z,8.20
2022-09-03T01:06:02.160Z,8.10
2022-09-03T01:08:32.742Z,8.00
2022-09-03T01:11:33.608Z,8.00
2022-09-03T01:14:08.611Z,8.00
2022-09-03T01:16:51.960Z,7.90
2022-09-03T01:20:01.964Z,7.90
2022-09-03T01:23:02.076Z,7.80
2022-09-03T01:26:07.523Z,7.80
2022-09-03T01:29:12.542Z,7.80
2022-09-03T01:31:51.858Z,7.80
2022-09-03T01:34:25.005Z,7.80
2022-09-03T01:37:24.373Z,7.70
2022-09-03T01:40:04.266Z,7.70
2022-09-03T01:42:32.125Z,7.70
2022-09-03T01:45:06.643Z,7.60
2022-09-03T01:47:55.654Z,7.60
2022-09-03T01:50:40.024Z,7.60
2022-09-03T01:53:19.364Z,7.50
2022-09-03T01:56:19.834Z,7.60
2022-09-03T01:59:21.381Z,7.50
2022-09-03T02:02:02.726Z,7.50
2022-09-03T02:04:31.939Z,7.50
2022-09-03T02:07:01.500Z,7.40
2022-09-03T02:09:33.000Z,7.40
2022-09-03T02:12:11.918Z,7.40
2022-09-03T02:14:39.531Z,7.40
2022-09-03T02:17:07.931Z,7.40
2022-09-03T02:19:37.807Z,7.30
2022-09-03T02:22:05.681Z,7.30
2022-09-03T02:24:33.386Z,7.40
2022-09-03T02:27:01.169Z,7.20
2022-09-03T02:29:28.739Z,7.20
2022-09-03T02:31:56.138Z,7.20
2022-09-03T02:34:24.088Z,7.20
2022-09-03T02:36:52.736Z,7.20
2022-09-03T02:39:20.303Z,7.20
2022-09-03T02:41:55.394Z,7.20
2022-09-03T02:44:30.919Z,7.20
2022-09-03T02:47:02.043Z,7.10
2022-09-03T02:49:30.999Z,7.10
2022-09-03T02:52:01.180Z,7.10
2022-09-03T02:54:29.275Z,7.10
2022-09-03T02:56:56.645Z,7.10
2022-09-03T02:59:24.219Z,7.00
2022-09-03T03:01:51.817Z,7.00
2022-09-03T03:04:19.295Z,6.90
2022-09-03T03:06:47.697Z,6.90
2022-09-03T03:09:15.486Z,6.90
2022-09-03T03:11:43.230Z,6.90
2022-09-03T03:14:11.066Z,6.90
2022-09-03T03:16:38.521Z,6.90
2022-09-03T03:19:06.073Z,6.90
2022-09-03T03:21:33.816Z,6.80
2022-09-03T03:24:02.891Z,6.80
2022-09-03T03:26:30.365Z,6.80
2022-09-03T03:29:00.780Z,6.80
2022-09-03T03:31:28.498Z,6.80
2022-09-03T03:33:58.473Z,6.80
2022-09-03T03:36:29.332Z,6.80
2022-09-03T03:38:59.252Z,6.80
2022-09-03T03:41:31.859Z,6.80
2022-09-03T03:44:01.736Z,6.90
2022-09-03T03:46:37.532Z,6.80
2022-09-03T03:49:06.944Z,6.90
2022-09-03T03:51:35.860Z,6.90
2022-09-03T03:54:05.490Z,7.00
2022-09-03T03:56:34.386Z,7.10
2022-09-03T03:59:02.341Z,7.20
2022-09-03T04:01:30.118Z,7.30
2022-09-03T04:04:00.321Z,7.40
2022-09-03T04:06:28.972Z,7.50
2022-09-03T04:08:56.652Z,7.50
2022-09-03T04:11:24.923Z,7.70
2022-09-03T04:13:53.254Z,7.70
2022-09-03T04:16:27.078Z,7.80
2022-09-03T04:18:56.330Z,7.90
2022-09-03T04:21:29.565Z,8.00
2022-09-03T04:23:58.538Z,8.10
2022-09-03T04:26:33.387Z,8.70
2022-09-03T04:29:08.795Z,9.70
2022-09-03T04:31:38.401Z,10.50
2022-09-03T04:34:09.559Z,11.00
2022-09-03T04:36:37.680Z,11.10
2022-09-03T04:39:05.088Z,11.30
2022-09-03T04:41:33.079Z,11.60
2022-09-03T04:44:00.802Z,12.10
2022-09-03T04:46:33.865Z,12.00
2022-09-03T04:49:02.271Z,11.80
2022-09-03T04:51:30.285Z,11.60
2022-09-03T04:54:01.546Z,11.40
2022-09-03T04:56:31.444Z,11.60
2022-09-03T04:59:04.243Z,12.10
2022-09-03T05:01:34.559Z,13.10
2022-09-03T05:04:02.962Z,14.10
2022-09-03T05:06:31.774Z,14.90
2022-09-03T05:09:01.661Z,16.00
2022-09-03T05:11:29.982Z,17.00
2022-09-03T05:13:59.475Z,17.50
2022-09-03T05:16:28.529Z,17.90
2022-09-03T05:18:59.743Z,18.10
2022-09-03T05:21:28.772Z,18.30
2022-09-03T05:23:56.489Z,18.30
2022-09-03T05:26:29.286Z,17.90
2022-09-03T05:28:59.873Z,17.70
2022-09-03T05:31:28.738Z,17.40
2022-09-03T05:34:00.615Z,16.80
2022-09-03T05:36:29.739Z,16.00
2022-09-03T05:38:58.621Z,15.50
2022-09-03T05:41:26.999Z,15.10
2022-09-03T05:43:59.799Z,14.60
2022-09-03T05:46:32.349Z,14.30
2022-09-03T05:49:01.404Z,13.90
2022-09-03T05:51:29.466Z,13.70
2022-09-03T05:53:57.684Z,14.70
2022-09-03T05:56:25.833Z,16.20
2022-09-03T05:58:54.354Z,17.60
2022-09-03T06:01:35.724Z,18.40
2022-09-03T06:04:04.736Z,17.50
2022-09-03T06:06:34.418Z,16.70
2022-09-03T06:09:05.264Z,16.60
2022-09-03T06:11:35.563Z,16.30
2022-09-03T06:14:06.022Z,15.60
2022-09-03T06:16:35.684Z,15.10
2022-09-03T06:19:06.292Z,14.90
2022-09-03T06:21:33.857Z,14.50
2022-09-03T06:24:01.263Z,14.20
2022-09-03T06:26:30.079Z,14.10
2022-09-03T06:28:58.331Z,14.10
2022-09-03T06:31:26.647Z,14.20
2022-09-03T06:33:54.940Z,14.20
2022-09-03T06:36:24.478Z,14.20
2022-09-03T06:38:54.190Z,14.40
2022-09-03T06:41:27.390Z,14.70
2022-09-03T06:43:59.402Z,14.80
2022-09-03T06:46:26.764Z,14.70
2022-09-03T06:48:55.688Z,14.80
2022-09-03T06:51:26.444Z,15.50
2022-09-03T06:53:59.646Z,16.90
2022-09-03T06:56:27.569Z,18.30
2022-09-03T06:58:57.655Z,18.00
2022-09-03T07:01:32.768Z,17.20
2022-09-03T07:04:05.329Z,16.80
2022-09-03T07:06:38.735Z,16.60
2022-09-03T07:09:10.813Z,17.20
2022-09-03T07:11:47.231Z,17.50
2022-09-03T07:14:19.425Z,17.20
2022-09-03T07:16:48.147Z,18.00
2022-09-03T07:19:16.490Z,19.00
2022-09-03T07:21:49.292Z,18.70
2022-09-03T07:24:19.771Z,18.90
2022-09-03T07:26:49.250Z,19.50
2022-09-03T07:29:20.884Z,20.10
2022-09-03T07:31:53.510Z,20.00
2022-09-03T07:34:25.521Z,19.70
2022-09-03T07:36:54.553Z,19.60
2022-09-03T07:39:22.147Z,18.80
2022-09-03T07:41:50.841Z,18.40
2022-09-03T07:44:22.962Z,17.70
2022-09-03T07:46:51.816Z,17.20
2022-09-03T07:49:22.027Z,16.90
2022-09-03T07:51:52.536Z,16.90
2022-09-03T07:54:21.956Z,16.80
2022-09-03T07:56:49.823Z,16.70
2022-09-03T07:59:17.418Z,16.60
2022-09-03T08:01:44.781Z,16.30
2022-09-03T08:04:12.370Z,16.30
2022-09-03T08:06:40.179Z,16.50
2022-09-03T08:09:11.513Z,16.60
2022-09-03T08:11:40.895Z,16.60
2022-09-03T08:14:10.674Z,16.40
2022-09-03T08:16:42.080Z,16.40
2022-09-03T08:19:11.537Z,16.60
2022-09-03T08:21:41.961Z,17.00
2022-09-03T08:24:09.819Z,16.70
2022-09-03T08:26:40.631Z,16.80
2022-09-03T08:29:08.417Z,17.20
2022-09-03T08:31:36.886Z,17.20
2022-09-03T08:34:07.369Z,17.20
2022-09-03T08:36:37.327Z,17.10
2022-09-03T08:39:10.402Z,17.10
2022-09-03T08:41:46.672Z,17.30
2022-09-03T08:44:26.255Z,16.90
2022-09-03T08:47:07.250Z,16.60
2022-09-03T08:49:58.453Z,16.60
2022-09-03T08:52:49.232Z,16.90
2022-09-03T08:55:29.977Z,17.20
2022-09-03T08:58:05.649Z,17.40
2022-09-03T09:01:01.647Z,17.90
2022-09-03T09:04:01.330Z,18.20
2022-09-03T09:06:57.414Z,18.10
2022-09-03T09:09:42.746Z,18.30
2022-09-03T09:12:28.659Z,18.00
2022-09-03T09:15:07.272Z,17.50
2022-09-03T09:17:53.739Z,17.50
2022-09-03T09:20:21.178Z,17.00
2022-09-03T09:22:56.716Z,16.70
2022-09-03T09:25:26.466Z,16.50
2022-09-03T09:28:25.291Z,16.40
2022-09-03T09:30:55.503Z,16.20
2022-09-03T09:33:23.190Z,16.00
2022-09-03T09:35:50.451Z,16.10
2022-09-03T09:38:27.381Z,16.10
2022-09-03T09:40:57.377Z,15.90
2022-09-03T09:43:24.858Z,15.70
2022-09-03T09:45:53.685Z,15.90
2022-09-03T09:48:20.951Z,15.90
2022-09-03T09:50:48.165Z,15.90
2022-09-03T09:53:18.196Z,16.10
2022-09-03T09:55:55.460Z,16.50
2022-09-03T09:58:24.280Z,16.80
2022-09-03T10:01:14.778Z,17.10
2022-09-03T10:03:49.663Z,17.50
2022-09-03T10:06:35.744Z,18.00
2022-09-03T10:09:13.498Z,18.40
2022-09-03T10:11:43.798Z,18.30
2022-09-03T10:14:24.460Z,18.10
2022-09-03T10:17:20.723Z,17.70
2022-09-03T10:20:33.976Z,17.30
2022-09-03T10:23:10.620Z,17.00
2022-09-03T10:26:07.821Z,17.00
2022-09-03T10:28:41.559Z,17.00
2022-09-03T10:31:31.766Z,17.20
2022-09-03T10:34:35.294Z,18.20
2022-09-03T10:37:27.289Z,17.90
2022-09-03T10:40:16.027Z,18.30
2022-09-03T10:42:56.521Z,19.50
2022-09-03T10:45:46.110Z,19.70
2022-09-03T10:48:51.645Z,19.60
2022-09-03T10:51:26.623Z,20.30
2022-09-03T10:54:15.757Z,19.60
2022-09-03T10:56:59.760Z,19.50
2022-09-03T10:59:43.103Z,19.30
2022-09-03T11:02:48.508Z,19.80
2022-09-03T11:05:19.663Z,19.90
2022-09-03T11:08:01.584Z,20.50
2022-09-03T11:10:31.901Z,21.60
2022-09-03T11:13:17.851Z,22.40
2022-09-03T11:15:59.790Z,23.20
2022-09-03T11:18:50.392Z,23.80
2022-09-03T11:21:24.571Z,23.10
2022-09-03T11:24:07.860Z,22.70
2022-09-03T11:26:36.390Z,21.80
2022-09-03T11:29:06.702Z,21.70
2022-09-03T11:31:48.270Z,20.90
2022-09-03T11:34:33.098Z,20.60
2022-09-03T11:37:28.198Z,20.50
2022-09-03T11:40:04.259Z,21.30
2022-09-03T11:42:38.512Z,21.00
2022-09-03T11:45:26.747Z,20.40
2022-09-03T11:47:55.154Z,19.50
2022-09-03T11:50:24.801Z,20.30
2022-09-03T11:53:08.868Z,21.50
2022-09-03T11:55:56.268Z,21.70
2022-09-03T11:58:39.627Z,21.30
2022-09-03T12:01:16.508Z,20.20
2022-09-03T12:03:54.967Z,19.70
2022-09-03T12:06:23.182Z,19.30
2022-09-03T12:08:59.459Z,19.20
2022-09-03T12:11:45.250Z,18.50
2022-09-03T12:14:40.135Z,18.20
2022-09-03T12:17:25.002Z,18.30
2022-09-03T12:19:55.212Z,18.30
2022-09-03T12:22:25.943Z,18.50
2022-09-03T12:24:53.542Z,18.40
2022-09-03T12:27:27.037Z,18.70
2022-09-03T12:29:56.854Z,18.80
2022-09-03T12:32:24.664Z,19.00
2022-09-03T12:34:53.034Z,19.80
2022-09-03T12:40:18.243Z,20.70
2022-09-03T12:42:46.026Z,21.10
2022-09-03T12:45:16.657Z,20.80
2022-09-03T12:47:45.288Z,21.60
2022-09-03T12:50:20.078Z,21.60
2022-09-03T12:53:01.950Z,22.10
2022-09-03T12:55:40.542Z,22.10
2022-09-03T12:58:19.712Z,22.00
2022-09-03T13:01:09.470Z,22.00
2022-09-03T13:04:19.297Z,22.70
2022-09-03T13:06:57.043Z,22.80
2022-09-03T13:09:27.163Z,22.90
2022-09-03T13:11:55.686Z,22.70
2022-09-03T13:14:23.640Z,21.80
2022-09-03T13:17:33.192Z,21.90
2022-09-03T13:20:16.269Z,22.20
2022-09-03T13:23:01.371Z,22.30
2022-09-03T13:26:16.419Z,21.60
2022-09-03T13:28:59.658Z,20.80
2022-09-03T13:31:31.007Z,19.60
2022-09-03T13:34:11.592Z,19.20
2022-09-03T13:36:49.457Z,19.10
2022-09-03T13:39:28.445Z,19.60
2022-09-03T13:42:25.342Z,20.50
2022-09-03T13:45:06.361Z,20.90
2022-09-03T13:48:01.961Z,21.00
2022-09-03T13:50:35.627Z,20.50
2022-09-03T13:53:45.099Z,19.90
2022-09-03T13:56:18.590Z,19.60
2022-09-03T13:59:08.885Z,19.40
2022-09-03T14:01:54.295Z,19.30
2022-09-03T14:04:28.455Z,19.40
2022-09-03T14:07:07.044Z,19.30
2022-09-03T14:09:48.957Z,18.80
2022-09-03T14:12:25.398Z,18.70
2022-09-03T14:15:03.435Z,18.30
2022-09-03T14:17:46.683Z,17.90
2022-09-03T14:20:24.115Z,17.90
2022-09-03T14:23:19.517Z,17.70
2022-09-03T14:25:57.292Z,17.50
2022-09-03T14:28:37.843Z,17.50
2022-09-03T14:31:38.729Z,17.30
2022-09-03T14:34:18.783Z,17.10
2022-09-03T14:36:57.881Z,17.10
2022-09-03T14:39:51.803Z,17.00
2022-09-03T14:42:47.026Z,16.80
2022-09-03T14:45:17.248Z,16.40
2022-09-03T14:47:55.883Z,16.30
2022-09-03T14:50:45.487Z,16.30
2022-09-03T14:53:21.730Z,16.30
2022-09-03T14:56:21.388Z,16.30
2022-09-03T14:59:16.002Z,16.30
2022-09-03T15:01:48.282Z,16.30
2022-09-03T15:04:31.454Z,16.30
2022-09-03T15:07:35.337Z,16.10
2022-09-03T15:10:08.711Z,16.10
2022-09-03T15:13:12.008Z,16.10
2022-09-03T15:15:42.403Z,16.10
2022-09-03T15:18:23.486Z,16.10
2022-09-03T15:20:53.683Z,15.70
2022-09-03T15:23:33.720Z,15.60
2022-09-03T15:26:46.795Z,15.60
2022-09-03T15:29:29.240Z,15.50
2022-09-03T15:32:10.061Z,15.60
2022-09-03T15:35:02.866Z,15.50
2022-09-03T15:37:43.745Z,15.60
2022-09-03T15:40:50.334Z,15.70
2022-09-03T15:43:30.954Z,15.60
2022-09-03T15:46:10.948Z,15.60
2022-09-03T15:49:25.549Z,15.70
2022-09-03T15:52:01.785Z,15.70
2022-09-03T15:54:46.766Z,15.70
2022-09-03T15:57:34.665Z,15.60
2022-09-03T16:00:16.444Z,15.50
2022-09-03T16:02:52.589Z,15.50
2022-09-03T16:05:26.163Z,15.60
2022-09-03T16:08:07.249Z,15.70
2022-09-03T16:11:08.833Z,15.60
2022-09-03T16:13:51.437Z,15.40
2022-09-03T16:16:27.373Z,15.30
2022-09-03T16:19:12.982Z,15.20
2022-09-03T16:22:00.012Z,15.00
2022-09-03T16:24:51.486Z,14.90
2022-09-03T16:27:39.214Z,14.80
2022-09-03T16:30:12.528Z,14.80
2022-09-03T16:32:49.080Z,14.80
2022-09-03T16:35:53.748Z,14.70
2022-09-03T16:38:59.174Z,14.60
2022-09-03T16:41:41.801Z,14.60
2022-09-03T16:44:29.618Z,14.50
2022-09-03T16:47:24.355Z,14.60
2022-09-03T16:50:13.704Z,14.60
2022-09-03T16:53:01.539Z,14.50
2022-09-03T16:55:50.434Z,14.50
2022-09-03T16:58:43.265Z,14.50
2022-09-03T17:01:18.475Z,14.40
2022-09-03T17:03:45.949Z,14.40
2022-09-03T17:06:17.194Z,14.30
2022-09-03T17:09:13.071Z,14.30
2022-09-03T17:12:08.109Z,14.20
2022-09-03T17:15:00.826Z,14.30
2022-09-03T17:17:49.671Z,14.20
2022-09-03T17:21:04.514Z,14.20
2022-09-03T17:23:43.549Z,14.10
2022-09-03T17:26:30.428Z,14.10
2022-09-03T17:29:04.560Z,14.10
2022-09-03T17:31:55.341Z,14.10
2022-09-03T17:34:28.286Z,14.00
2022-09-03T17:36:58.559Z,14.00
2022-09-03T17:39:55.429Z,14.00
2022-09-03T17:42:38.670Z,13.90
2022-09-03T17:45:11.979Z,13.90
2022-09-03T17:47:57.244Z,13.80
2022-09-03T17:50:33.220Z,13.80
2022-09-03T17:53:10.440Z,13.80
2022-09-03T17:56:03.374Z,13.70
2022-09-03T17:58:36.820Z,13.70
2022-09-03T18:01:26.377Z,13.70
2022-09-03T18:04:03.260Z,13.60
2022-09-03T18:06:41.586Z,13.60
2022-09-03T18:09:37.846Z,13.60
2022-09-03T18:12:32.677Z,13.50
2022-09-03T18:15:04.856Z,13.50
2022-09-03T18:17:51.861Z,13.40
2022-09-03T18:20:41.093Z,13.40
2022-09-03T18:23:29.753Z,13.40
2022-09-03T18:26:30.140Z,13.40
2022-09-03T18:29:25.316Z,13.30
2022-09-03T18:32:11.179Z,13.30
2022-09-03T18:34:57.957Z,13.20
2022-09-03T18:37:46.118Z,13.20
2022-09-03T18:40:42.919Z,13.20
2022-09-03T18:43:44.712Z,13.20
2022-09-03T18:49:55.536Z,13.00
2022-09-03T18:53:15.906Z,12.90
2022-09-03T18:56:16.336Z,12.90
2022-09-03T18:59:08.233Z,12.90
2022-09-03T19:01:57.643Z,12.80
2022-09-03T19:05:03.738Z,12.80
2022-09-03T19:08:03.722Z,12.80
2022-09-03T19:11:23.535Z,12.80
2022-09-03T19:14:10.555Z,12.70
2022-09-03T19:16:59.233Z,12.80
2022-09-03T19:19:58.068Z,12.80
2022-09-03T19:22:58.007Z,12.80
2022-09-03T19:25:46.023Z,12.80
2022-09-03T19:28:34.523Z,12.90
2022-09-03T19:31:44.815Z,12.90
2022-09-03T19:34:47.141Z,12.90
2022-09-03T19:37:49.552Z,12.90
2022-09-03T19:41:00.245Z,12.90
2022-09-03T19:44:18.928Z,12.80
2022-09-03T19:47:19.682Z,12.70
2022-09-03T19:50:29.619Z,12.70
2022-09-03T19:53:23.939Z,12.60
2022-09-03T19:56:15.683Z,12.50
2022-09-03T19:59:14.206Z,12.50
2022-09-03T20:02:02.070Z,12.50
2022-09-03T20:04:58.641Z,12.50
2022-09-03T20:07:45.719Z,12.50
2022-09-03T20:10:24.829Z,12.40
2022-09-03T20:13:15.143Z,12.20
2022-09-03T20:15:51.401Z,12.10
2022-09-03T20:18:37.173Z,12.10
2022-09-03T20:21:13.117Z,12.00
2022-09-03T20:23:55.612Z,12.00
2022-09-03T20:26:47.521Z,11.90
2022-09-03T20:29:32.536Z,11.80
2022-09-03T20:32:09.462Z,11.70
2022-09-03T20:34:49.493Z,11.50
2022-09-03T20:37:31.486Z,11.30
2022-09-03T20:40:26.967Z,11.30
2022-09-03T20:43:04.964Z,11.20
2022-09-03T20:45:57.609Z,11.10
2022-09-03T20:48:38.841Z,11.00
2022-09-03T20:51:22.955Z,10.90
2022-09-03T20:54:06.442Z,11.00
2022-09-03T20:56:39.167Z,11.00
2022-09-03T20:59:32.277Z,11.10
2022-09-03T21:02:18.799Z,11.20
2022-09-03T21:04:54.956Z,11.30
2022-09-03T21:07:44.177Z,11.30
2022-09-03T21:10:41.436Z,11.30
2022-09-03T21:13:38.342Z,11.30
2022-09-03T21:16:24.730Z,11.30
2022-09-03T21:19:00.101Z,11.30
2022-09-03T21:21:55.320Z,11.30
2022-09-03T21:24:53.293Z,11.30
2022-09-03T21:27:24.520Z,11.20
2022-09-03T21:30:08.355Z,11.10
2022-09-03T21:32:40.046Z,11.10
2022-09-03T21:35:27.919Z,11.00
2022-09-03T21:38:16.806Z,10.90
2022-09-03T21:40:53.617Z,10.80
2022-09-03T21:43:23.988Z,10.70
2022-09-03T21:46:07.890Z,10.70
2022-09-03T21:48:42.592Z,10.60
2022-09-03T21:51:22.050Z,10.50
2022-09-03T21:54:13.625Z,10.50
2022-09-03T21:56:56.332Z,10.50
2022-09-03T21:59:58.553Z,10.50
2022-09-03T22:02:28.184Z,10.50
2022-09-03T22:04:57.026Z,10.50
2022-09-03T22:07:36.189Z,10.40
2022-09-03T22:10:20.967Z,10.40
2022-09-03T22:13:20.901Z,10.40
2022-09-03T22:15:53.291Z,10.30
2022-09-03T22:18:28.981Z,10.40
2022-09-03T22:21:11.504Z,10.30
2022-09-03T22:23:47.661Z,10.20
2022-09-03T22:26:45.363Z,10.10
2022-09-03T22:29:34.434Z,10.00
2022-09-03T22:32:06.543Z,9.90
2022-09-03T22:34:44.517Z,9.80
2022-09-03T22:37:41.156Z,9.70
2022-09-03T22:40:26.469Z,9.60
2022-09-03T22:43:15.174Z,9.60
2022-09-03T22:45:45.514Z,9.50
2022-09-03T22:48:45.295Z,9.60
2022-09-03T22:51:19.795Z,9.50
2022-09-03T22:54:13.729Z,9.50
2022-09-03T22:56:42.214Z,9.50
2022-09-03T22:59:23.988Z,9.50
2022-09-03T23:02:15.663Z,9.50
2022-09-03T23:04:58.203Z,9.40
2022-09-03T23:07:43.278Z,9.50
2022-09-03T23:10:14.723Z,9.50
2022-09-03T23:13:05.970Z,9.50
2022-09-03T23:15:38.229Z,9.50
2022-09-03T23:18:22.369Z,9.60
2022-09-03T23:21:23.817Z,9.60
2022-09-03T23:24:00.034Z,9.70
2022-09-03T23:26:31.814Z,9.60
2022-09-03T23:29:27.390Z,9.70
2022-09-03T23:31:59.240Z,9.70
2022-09-03T23:34:27.744Z,9.80
2022-09-03T23:37:32.330Z,9.90
2022-09-03T23:40:08.535Z,9.90
2022-09-03T23:42:53.972Z,9.90
2022-09-03T23:45:38.310Z,10.10
2022-09-03T23:48:15.447Z,10.10
2022-09-03T23:51:06.590Z,10.10
2022-09-03T23:54:11.120Z,10.20
2022-09-03T23:56:45.655Z,10.20
2022-09-03T23:59:21.623Z,10.10
